Time;durP1;ratioP1;P1;durP2;ratioP2;P2;SDS_P1;SDS_P2;PMS_P1;PMS_P2;Temp;Humidity;BMP_temperature;BMP_pressure;BME280_temperature;BME280_humidity;BME280_pressure;Samples;Min_cycle;Max_cycle;Signal;HPM_P1;HPM_P2
2022/06/29 00:01:24;;;;;;;4.47;2.15;;;;;;;;;;5111436;28;20152;-72
2022/06/29 00:05:58;;;;;;;4.25;2.28;;;;;;;;;;5152610;27;20133;-73
2022/06/29 00:08:24;;;;;;;3.47;2.30;;;;;;;;;;5131782;28;20035;-73
2022/06/29 00:10:50;;;;;;;2.67;2.03;;;;;;;;;;5131449;28;20020;-73
2022/06/29 00:13:16;;;;;;;3.97;2.20;;;;;;;;;;5131920;28;20106;-72
2022/06/29 00:15:42;;;;;;;4.38;2.40;;;;;;;;;;5131602;28;20490;-72
2022/06/29 00:18:08;;;;;;;5.15;2.45;;;;;;;;;;5131214;28;20028;-72
2022/06/29 00:20:35;;;;;;;5.57;2.33;;;;;;;;;;5131592;28;20026;-72
2022/06/29 00:23:01;;;;;;;5.13;2.90;;;;;;;;;;5131780;28;20091;-74
2022/06/29 00:26:12;;;;;;;5.40;2.67;;;;;;;;;;5111894;27;20422;-72
2022/06/29 00:29:03;;;;;;;3.88;2.22;;;;;;;;;;5111940;27;20783;-73
2022/06/29 00:33:32;;;;;;;6.13;2.55;;;;;;;;;;5111424;27;20834;-72
2022/06/29 00:37:29;;;;;;;4.65;2.50;;;;;;;;;;5111384;27;20904;-72
2022/06/29 00:39:55;;;;;;;4.43;2.30;;;;;;;;;;5110993;28;20415;-73
2022/06/29 00:42:22;;;;;;;7.07;2.63;;;;;;;;;;5111287;28;20027;-73
2022/06/29 00:44:48;;;;;;;5.10;2.67;;;;;;;;;;5110798;28;20028;-72
2022/06/29 00:47:15;;;;;;;5.30;2.70;;;;;;;;;;5111133;28;20028;-73
2022/06/29 00:49:41;;;;;;;3.92;2.30;;;;;;;;;;5111481;28;20020;-74
2022/06/29 00:52:08;;;;;;;4.70;2.50;;;;;;;;;;5110689;28;20059;-72
2022/06/29 00:54:42;;;;;;;5.55;2.50;;;;;;;;;;5109647;28;20111;-72
2022/06/29 00:57:25;;;;;;;3.03;2.30;;;;;;;;;;5110953;28;20031;-73
2022/06/29 01:01:36;;;;;;;4.65;2.22;;;;;;;;;;5112064;27;20397;-72
2022/06/29 01:04:02;;;;;;;4.40;2.28;;;;;;;;;;5111273;28;20036;-72
2022/06/29 01:06:28;;;;;;;6.88;2.63;;;;;;;;;;5110776;28;20034;-72
2022/06/29 01:08:54;;;;;;;4.32;2.50;;;;;;;;;;5111295;28;20030;-72
2022/06/29 01:11:21;;;;;;;3.05;2.15;;;;;;;;;;5111756;28;20024;-73
2022/06/29 01:13:48;;;;;;;4.15;2.38;;;;;;;;;;5110639;28;20491;-73
2022/06/29 01:16:14;;;;;;;3.97;2.47;;;;;;;;;;5111024;28;20028;-73
2022/06/29 01:18:40;;;;;;;4.22;2.70;;;;;;;;;;5111224;28;20023;-72
2022/06/29 01:23:12;;;;;;;3.97;2.05;;;;;;;;;;5111920;27;20418;-73
2022/06/29 01:26:46;;;;;;;6.78;2.70;;;;;;;;;;5111503;27;20414;-73
2022/06/29 01:29:12;;;;;;;7.85;2.30;;;;;;;;;;5110841;28;20027;-74
2022/06/29 01:31:39;;;;;;;4.63;2.50;;;;;;;;;;5111242;28;20051;-74
2022/06/29 01:34:52;;;;;;;4.65;1.98;;;;;;;;;;5111445;27;20385;-73
2022/06/29 01:38:47;;;;;;;5.18;2.60;;;;;;;;;;5111974;27;20113;-72
2022/06/29 01:42:36;;;;;;;3.45;1.88;;;;;;;;;;5111063;27;20422;-72
2022/06/29 01:45:03;;;;;;;4.38;2.30;;;;;;;;;;5111424;28;20383;-73
2022/06/29 01:50:06;;;;;;;6.45;2.30;;;;;;;;;;5110978;27;20393;-72
2022/06/29 01:52:32;;;;;;;5.47;2.28;;;;;;;;;;5111291;28;20041;-72
2022/06/29 01:54:58;;;;;;;4.28;2.67;;;;;;;;;;5110796;28;20055;-72
2022/06/29 01:57:24;;;;;;;4.47;2.35;;;;;;;;;;5111277;28;20024;-73
2022/06/29 02:01:37;;;;;;;3.70;2.75;;;;;;;;;;5112080;27;20392;-73
2022/06/29 02:04:03;;;;;;;3.95;2.30;;;;;;;;;;5109499;28;20039;-72
2022/06/29 02:06:29;;;;;;;4.43;2.28;;;;;;;;;;5111316;28;20024;-72
2022/06/29 02:10:05;;;;;;;3.88;2.20;;;;;;;;;;5110916;27;20937;-73
2022/06/29 02:12:31;;;;;;;4.35;2.72;;;;;;;;;;5111429;28;20016;-73
2022/06/29 02:14:57;;;;;;;3.40;2.03;;;;;;;;;;5111205;28;20023;-73
2022/06/29 02:17:24;;;;;;;3.47;2.47;;;;;;;;;;5109549;28;20024;-73
2022/06/29 02:19:50;;;;;;;5.28;2.15;;;;;;;;;;5111139;28;20020;-73
2022/06/29 02:22:16;;;;;;;3.80;2.22;;;;;;;;;;5111111;28;20031;-74
2022/06/29 02:25:22;;;;;;;5.70;2.50;;;;;;;;;;5111518;27;20389;-73
2022/06/29 02:27:48;;;;;;;4.28;2.30;;;;;;;;;;5111482;28;20498;-73
2022/06/29 02:35:38;;;;;;;4.63;2.65;;;;;;;;;;5111868;27;20565;-73
2022/06/29 02:38:04;;;;;;;5.68;2.60;;;;;;;;;;5110885;28;20024;-73
2022/06/29 02:40:31;;;;;;;5.05;2.30;;;;;;;;;;5111332;28;20024;-72
2022/06/29 02:44:23;;;;;;;7.45;4.13;;;;;;;;;;5111646;27;20846;-73
2022/06/29 02:46:49;;;;;;;5.40;2.65;;;;;;;;;;5111439;28;20054;-73
2022/06/29 02:50:19;;;;;;;6.18;2.80;;;;;;;;;;5111735;27;20182;-73
2022/06/29 02:53:24;;;;;;;6.90;3.17;;;;;;;;;;5110888;27;20396;-73
2022/06/29 02:55:51;;;;;;;6.47;2.92;;;;;;;;;;5111751;28;20417;-73
2022/06/29 03:03:19;;;;;;;8.43;3.22;;;;;;;;;;5111695;27;20422;-73
2022/06/29 03:05:59;;;;;;;4.28;2.78;;;;;;;;;;5105128;27;1431777;-73
2022/06/29 03:08:25;;;;;;;4.70;2.55;;;;;;;;;;5131851;28;20033;-72
2022/06/29 03:12:53;;;;;;;3.72;2.22;;;;;;;;;;5110944;27;20454;-72
2022/06/29 03:15:19;;;;;;;3.38;2.15;;;;;;;;;;5111392;28;20024;-72
2022/06/29 03:24:44;;;;;;;5.22;2.70;;;;;;;;;;5111517;27;20397;-72
2022/06/29 03:28:02;;;;;;;5.20;3.10;;;;;;;;;;5111044;27;20393;-74
2022/06/29 03:30:29;;;;;;;4.78;2.90;;;;;;;;;;5111546;28;20478;-73
2022/06/29 03:32:55;;;;;;;4.25;2.58;;;;;;;;;;5111380;28;20094;-73
2022/06/29 03:35:21;;;;;;;4.72;2.45;;;;;;;;;;5110742;28;20020;-73
2022/06/29 03:40:54;;;;;;;5.10;2.85;;;;;;;;;;5110836;27;20842;-73
2022/06/29 03:45:12;;;;;;;4.78;2.45;;;;;;;;;;5111743;27;20423;-72
2022/06/29 03:49:19;;;;;;;7.88;3.10;;;;;;;;;;5110918;27;20418;-73
2022/06/29 03:51:45;;;;;;;4.80;2.92;;;;;;;;;;5111208;28;20028;-72
2022/06/29 03:55:32;;;;;;;4.68;2.65;;;;;;;;;;5111136;27;20393;-72
2022/06/29 04:01:06;;;;;;;3.72;2.25;;;;;;;;;;5111335;27;20418;-71
2022/06/29 04:03:32;;;;;;;4.38;2.30;;;;;;;;;;5110807;28;20054;-71
2022/06/29 04:05:58;;;;;;;5.68;2.60;;;;;;;;;;5111209;28;20073;-72
2022/06/29 04:10:32;;;;;;;8.32;3.70;;;;;;;;;;5110953;27;20392;-72
2022/06/29 04:12:58;;;;;;;5.05;2.80;;;;;;;;;;5111358;28;20028;-72
2022/06/29 04:23:05;;;;;;;4.72;2.75;;;;;;;;;;5111247;28;20034;-72
2022/06/29 04:26:03;;;;;;;4.00;2.40;;;;;;;;;;5112017;27;20377;-73
2022/06/29 04:28:29;;;;;;;4.25;2.38;;;;;;;;;;5111212;28;20035;-72
2022/06/29 04:30:56;;;;;;;5.28;2.78;;;;;;;;;;5110891;28;20115;-72
2022/06/29 04:35:15;;;;;;;9.50;3.67;;;;;;;;;;5112064;27;20404;-72
2022/06/29 04:37:41;;;;;;;6.45;3.58;;;;;;;;;;5110791;28;20102;-72
2022/06/29 04:40:08;;;;;;;6.60;2.95;;;;;;;;;;5111259;28;20020;-72
2022/06/29 04:42:34;;;;;;;5.45;3.08;;;;;;;;;;5109925;28;20016;-72
2022/06/29 04:45:00;;;;;;;8.18;3.67;;;;;;;;;;5110784;28;20093;-71
2022/06/29 04:47:26;;;;;;;7.97;3.50;;;;;;;;;;5111302;28;20452;-72
2022/06/29 04:52:44;;;;;;;6.78;3.67;;;;;;;;;;5110880;27;20384;-72
2022/06/29 04:55:43;;;;;;;6.40;3.70;;;;;;;;;;5112054;27;20909;-72
2022/06/29 04:58:09;;;;;;;10.77;3.70;;;;;;;;;;5126624;28;20052;-71
2022/06/29 05:02:22;;;;;;;6.30;3.25;;;;;;;;;;5091698;27;20397;-72
2022/06/29 05:04:48;;;;;;;10.75;3.92;;;;;;;;;;5090911;28;20028;-69
2022/06/29 05:07:15;;;;;;;6.05;3.72;;;;;;;;;;5090629;28;20530;-69
2022/06/29 05:14:16;;;;;;;5.03;2.90;;;;;;;;;;5111400;27;20388;-69
2022/06/29 05:16:42;;;;;;;7.13;2.55;;;;;;;;;;5111277;28;20027;-69
2022/06/29 05:20:09;;;;;;;6.18;2.60;;;;;;;;;;5111217;27;20393;-69
2022/06/29 05:22:36;;;;;;;4.32;2.75;;;;;;;;;;5111185;28;20020;-69
2022/06/29 05:29:46;;;;;;;11.80;4.47;;;;;;;;;;5070775;28;20449;-69
2022/06/29 05:32:12;;;;;;;9.18;4.32;;;;;;;;;;5070606;28;20035;-68
2022/06/29 05:36:39;;;;;;;5.63;3.20;;;;;;;;;;5109297;27;20113;-68
2022/06/29 05:39:05;;;;;;;7.68;2.90;;;;;;;;;;5109235;28;20031;-68
2022/06/29 05:41:54;;;;;;;3.83;2.28;;;;;;;;;;5111046;27;20766;-69
2022/06/29 05:44:20;;;;;;;3.95;2.38;;;;;;;;;;5109882;28;20109;-67
2022/06/29 05:47:42;;;;;;;5.18;2.65;;;;;;;;;;5111247;27;20834;-69
2022/06/29 05:50:10;;;;;;;4.25;2.33;;;;;;;;;;5111220;28;20106;-69
2022/06/29 05:52:36;;;;;;;7.78;3.38;;;;;;;;;;5111406;28;20361;-72
2022/06/29 05:55:04;;;;;;;23.45;6.78;;;;;;;;;;5109389;28;20024;-71
2022/06/29 05:57:30;;;;;;;9.98;3.95;;;;;;;;;;5103971;28;20062;-71
2022/06/29 05:59:56;;;;;;;6.03;2.92;;;;;;;;;;5106097;28;20039;-72
2022/06/29 06:06:22;;;;;;;5.05;2.67;;;;;;;;;;5109267;27;20931;-72
2022/06/29 06:08:48;;;;;;;5.07;2.72;;;;;;;;;;5110391;28;20391;-70
2022/06/29 06:11:14;;;;;;;5.03;2.63;;;;;;;;;;5110978;28;20028;-70
2022/06/29 06:13:40;;;;;;;5.43;2.45;;;;;;;;;;5110962;28;20016;-70
2022/06/29 06:16:07;;;;;;;6.78;3.10;;;;;;;;;;5108720;28;20020;-71
2022/06/29 06:18:33;;;;;;;4.75;2.40;;;;;;;;;;5110630;28;20031;-70
2022/06/29 06:20:59;;;;;;;7.10;3.22;;;;;;;;;;5123693;28;20023;-71
2022/06/29 06:23:25;;;;;;;3.85;2.60;;;;;;;;;;5106443;28;20594;-71
2022/06/29 06:26:49;;;;;;;5.38;2.97;;;;;;;;;;5110241;27;20396;-71
2022/06/29 06:29:15;;;;;;;6.10;3.03;;;;;;;;;;5110403;28;20093;-72
2022/06/29 06:31:42;;;;;;;4.47;2.40;;;;;;;;;;5109364;28;20016;-71
2022/06/29 06:35:03;;;;;;;7.32;3.45;;;;;;;;;;5112724;27;20391;-70
2022/06/29 06:37:29;;;;;;;5.97;2.60;;;;;;;;;;5128518;28;20030;-70
2022/06/29 06:42:40;;;;;;;5.00;2.80;;;;;;;;;;5130694;28;20026;-70
2022/06/29 06:45:07;;;;;;;2.88;2.42;;;;;;;;;;5130355;28;20111;-72
2022/06/29 06:47:33;;;;;;;8.27;2.83;;;;;;;;;;5130996;28;20030;-72
2022/06/29 06:49:59;;;;;;;4.00;2.33;;;;;;;;;;5130820;28;20027;-72
2022/06/29 06:52:25;;;;;;;4.65;2.45;;;;;;;;;;5130638;28;20069;-70
2022/06/29 06:54:51;;;;;;;4.75;2.67;;;;;;;;;;5130892;28;20035;-70
2022/06/29 06:57:38;;;;;;;4.90;2.92;;;;;;;;;;5110462;27;20767;-71
2022/06/29 07:00:05;;;;;;;5.80;3.03;;;;;;;;;;5110491;28;20028;-72
2022/06/29 07:02:45;;;;;;;5.20;2.67;;;;;;;;;;5110410;27;20418;-70
2022/06/29 07:05:11;;;;;;;4.18;2.55;;;;;;;;;;5110031;28;20176;-72
2022/06/29 07:07:38;;;;;;;4.30;2.60;;;;;;;;;;5108959;28;20400;-71
2022/06/29 07:10:04;;;;;;;5.13;2.90;;;;;;;;;;5110404;28;20091;-70
2022/06/29 07:12:30;;;;;;;5.22;2.70;;;;;;;;;;5105341;28;20023;-72
2022/06/29 07:14:56;;;;;;;6.18;3.03;;;;;;;;;;5102267;28;20121;-71
2022/06/29 07:17:23;;;;;;;5.25;2.80;;;;;;;;;;5108038;28;20028;-72
2022/06/29 07:19:49;;;;;;;4.55;2.53;;;;;;;;;;5109063;28;20020;-69
2022/06/29 07:22:15;;;;;;;3.42;2.42;;;;;;;;;;5108580;28;20048;-71
2022/06/29 07:24:41;;;;;;;3.47;2.30;;;;;;;;;;5105855;28;20491;-70
2022/06/29 07:27:07;;;;;;;4.05;2.72;;;;;;;;;;5109898;28;20141;-70
2022/06/29 07:29:34;;;;;;;4.53;2.80;;;;;;;;;;5110460;28;20020;-69
2022/06/29 07:32:00;;;;;;;5.32;2.65;;;;;;;;;;5109307;28;20024;-70
2022/06/29 07:34:26;;;;;;;4.72;2.88;;;;;;;;;;5107329;28;20019;-68
2022/06/29 07:36:52;;;;;;;3.20;2.30;;;;;;;;;;5105111;28;20028;-70
2022/06/29 07:39:18;;;;;;;4.90;2.50;;;;;;;;;;5088619;28;20042;-73
2022/06/29 07:41:45;;;;;;;6.45;2.75;;;;;;;;;;5106890;28;20047;-72
2022/06/29 07:44:11;;;;;;;4.38;2.65;;;;;;;;;;5093010;27;20021;-73
2022/06/29 07:46:37;;;;;;;6.70;3.35;;;;;;;;;;5109138;28;20023;-72
2022/06/29 07:49:03;;;;;;;4.10;2.30;;;;;;;;;;5128255;28;20084;-73
2022/06/29 07:51:29;;;;;;;4.28;2.20;;;;;;;;;;5128525;28;20023;-72
2022/06/29 07:55:36;;;;;;;3.50;2.20;;;;;;;;;;5108411;27;20430;-71
2022/06/29 07:58:03;;;;;;;4.70;2.45;;;;;;;;;;5108923;28;20016;-72
2022/06/29 08:00:29;;;;;;;4.68;2.58;;;;;;;;;;5110260;28;20032;-72
2022/06/29 08:02:55;;;;;;;7.32;2.60;;;;;;;;;;5110156;28;20487;-71
2022/06/29 08:05:23;;;;;;;4.70;2.65;;;;;;;;;;5109049;28;20281;-71
2022/06/29 08:07:49;;;;;;;2.42;1.90;;;;;;;;;;5106920;28;20034;-72
2022/06/29 08:10:16;;;;;;;3.58;2.42;;;;;;;;;;5108112;28;20016;-72
2022/06/29 08:12:42;;;;;;;5.40;2.80;;;;;;;;;;5108597;28;20028;-71
2022/06/29 08:15:09;;;;;;;3.53;2.53;;;;;;;;;;5107001;28;20031;-70
2022/06/29 08:17:35;;;;;;;6.15;2.55;;;;;;;;;;5108099;28;20024;-68
2022/06/29 08:20:02;;;;;;;4.05;2.50;;;;;;;;;;5108337;28;20028;-70
2022/06/29 08:22:28;;;;;;;3.42;2.55;;;;;;;;;;5109869;28;20031;-69
2022/06/29 08:24:54;;;;;;;10.00;2.50;;;;;;;;;;5109565;28;20507;-68
2022/06/29 08:27:22;;;;;;;4.05;2.28;;;;;;;;;;5109265;28;20518;-70
2022/06/29 08:29:48;;;;;;;3.78;2.40;;;;;;;;;;5109760;28;20020;-70
2022/06/29 08:32:14;;;;;;;8.10;2.78;;;;;;;;;;5109826;28;20028;-70
2022/06/29 08:34:40;;;;;;;4.05;2.88;;;;;;;;;;5109319;28;20032;-72
2022/06/29 08:37:06;;;;;;;4.30;2.42;;;;;;;;;;5107206;28;20024;-70
2022/06/29 08:39:33;;;;;;;3.88;2.53;;;;;;;;;;5107970;28;20016;-71
2022/06/29 08:43:18;;;;;;;4.43;2.90;;;;;;;;;;5108435;27;20396;-71
2022/06/29 08:45:48;;;;;;;4.10;2.42;;;;;;;;;;5108678;28;20488;-71
2022/06/29 08:48:16;;;;;;;3.83;2.50;;;;;;;;;;5108462;28;20027;-71
2022/06/29 08:50:43;;;;;;;4.00;2.30;;;;;;;;;;5108274;28;20008;-70
2022/06/29 08:53:13;;;;;;;5.47;2.50;;;;;;;;;;5108213;28;20487;-69
2022/06/29 08:55:42;;;;;;;3.85;2.35;;;;;;;;;;5108355;28;20031;-71
2022/06/29 08:58:09;;;;;;;4.03;2.40;;;;;;;;;;5108309;28;20032;-70
2022/06/29 09:00:36;;;;;;;5.03;2.67;;;;;;;;;;5109812;28;20038;-70
2022/06/29 09:03:04;;;;;;;3.63;2.70;;;;;;;;;;5109985;28;20458;-70
2022/06/29 09:05:30;;;;;;;4.18;2.45;;;;;;;;;;5109772;28;20016;-70
2022/06/29 09:07:57;;;;;;;4.65;2.47;;;;;;;;;;5110252;28;20043;-70
2022/06/29 09:10:24;;;;;;;3.78;2.30;;;;;;;;;;5110190;28;20136;-70
2022/06/29 09:12:52;;;;;;;6.32;2.53;;;;;;;;;;5109575;28;20012;-69
2022/06/29 09:15:29;;;;;;;4.28;2.28;;;;;;;;;;5110390;28;20361;-70
2022/06/29 09:17:55;;;;;;;4.38;2.50;;;;;;;;;;5110156;28;20034;-69
2022/06/29 09:20:21;;;;;;;3.92;2.42;;;;;;;;;;5107375;28;20023;-70
2022/06/29 09:22:52;;;;;;;3.90;2.40;;;;;;;;;;5108592;28;20035;-70
2022/06/29 09:25:25;;;;;;;3.25;2.47;;;;;;;;;;5107969;28;20044;-70
2022/06/29 09:27:54;;;;;;;;;;;;;;;;;;5109264;28;20105;-70
2022/06/29 09:30:30;;;;;;;5.50;2.53;;;;;;;;;;5108098;28;20012;-69
2022/06/29 09:33:06;;;;;;;3.33;2.00;;;;;;;;;;5109181;28;20020;-69
2022/06/29 09:35:32;;;;;;;4.50;2.50;;;;;;;;;;5109770;28;20349;-69
2022/06/29 09:38:17;;;;;;;3.75;2.03;;;;;;;;;;5107912;28;20027;-69
2022/06/29 09:41:02;;;;;;;3.45;2.28;;;;;;;;;;5109241;28;20023;-70
2022/06/29 09:43:30;;;;;;;4.03;2.50;;;;;;;;;;5108363;28;20403;-72
2022/06/29 09:45:56;;;;;;;3.80;2.20;;;;;;;;;;5106617;28;20020;-72
2022/06/29 09:48:24;;;;;;;5.28;2.80;;;;;;;;;;5106236;28;20051;-72
2022/06/29 09:50:51;;;;;;;6.07;2.47;;;;;;;;;;5107918;28;20098;-71
2022/06/29 09:53:18;;;;;;;2.85;1.90;;;;;;;;;;5101717;28;20016;-69
2022/06/29 09:55:48;;;;;;;4.55;2.42;;;;;;;;;;5094322;28;20020;-69
2022/06/29 09:58:15;;;;;;;2.92;2.10;;;;;;;;;;5094711;28;20028;-70
2022/06/29 10:03:27;;;;;;;2.83;1.83;;;;;;;;;;5093286;28;20046;-71
2022/06/29 10:06:04;;;;;;;3.13;2.30;;;;;;;;;;5094308;28;20097;-72
2022/06/29 10:08:31;;;;;;;2.95;1.75;;;;;;;;;;5094937;28;20377;-71
2022/06/29 10:13:39;;;;;;;4.75;2.10;;;;;;;;;;5091753;28;20020;-70
2022/06/29 10:13:48;;;;;;;5.60;2.00;;;;;;;;;;5092655;28;20032;-71
2022/06/29 10:16:14;;;;;;;1.95;1.50;;;;;;;;;;5094351;28;20044;-71
2022/06/29 10:18:47;;;;;;;3.00;1.83;;;;;;;;;;5093848;28;20024;-71
2022/06/29 10:21:18;;;;;;;6.75;3.20;;;;;;;;;;5094766;28;20107;-73
2022/06/29 10:23:46;;;;;;;5.53;3.03;;;;;;;;;;5094918;28;20284;-73
2022/06/29 10:26:30;;;;;;;2.97;1.90;;;;;;;;;;5091686;28;20372;-73
2022/06/29 10:29:17;;;;;;;5.63;3.08;;;;;;;;;;5084994;28;20032;-72
2022/06/29 10:31:53;;;;;;;3.03;1.98;;;;;;;;;;5079352;28;20036;-73
2022/06/29 10:34:32;;;;;;;2.80;1.58;;;;;;;;;;5095244;28;20085;-72
2022/06/29 10:37:07;;;;;;;3.60;2.10;;;;;;;;;;5094971;28;20488;-73
2022/06/29 10:39:42;;;;;;;2.33;1.63;;;;;;;;;;5093939;28;20541;-72
2022/06/29 10:45:15;;;;;;;3.50;1.70;;;;;;;;;;5094973;28;20039;-72
2022/06/29 10:47:45;;;;;;;3.20;2.00;;;;;;;;;;5075033;28;20024;-74
2022/06/29 10:50:19;;;;;;;3.17;1.80;;;;;;;;;;5074771;28;20370;-74
2022/06/29 10:52:45;;;;;;;4.10;1.55;;;;;;;;;;5074393;28;20025;-73
2022/06/29 10:55:11;;;;;;;6.10;1.35;;;;;;;;;;5073181;28;20021;-73
2022/06/29 10:57:39;;;;;;;1.52;1.23;;;;;;;;;;5090223;28;20050;-72
2022/06/29 11:00:09;;;;;;;1.90;1.33;;;;;;;;;;5092616;28;20365;-74
2022/06/29 11:02:38;;;;;;;3.20;1.48;;;;;;;;;;5093298;28;20034;-73
2022/06/29 11:05:04;;;;;;;2.60;1.50;;;;;;;;;;5092946;28;20024;-73
2022/06/29 11:13:00;;;;;;;1.75;1.30;;;;;;;;;;5093833;28;20176;-73
2022/06/29 11:15:42;;;;;;;1.65;1.10;;;;;;;;;;5093686;28;20030;-73
2022/06/29 11:18:10;;;;;;;;;;;;;;;;;;5092664;28;20025;-75
2022/06/29 11:20:38;;;;;;;3.08;1.63;;;;;;;;;;5092693;28;19911;-72
2022/06/29 11:23:10;;;;;;;2.35;1.23;;;;;;;;;;5092562;28;20378;-75
2022/06/29 11:25:36;;;;;;;4.95;1.50;;;;;;;;;;5092220;28;20020;-74
2022/06/29 11:28:03;;;;;;;1.70;1.40;;;;;;;;;;5092437;28;20392;-74
2022/06/29 11:30:29;;;;;;;1.90;1.50;;;;;;;;;;5092630;28;20423;-73
2022/06/29 11:32:55;;;;;;;1.60;1.20;;;;;;;;;;5093245;28;20393;-73
2022/06/29 11:35:23;;;;;;;4.63;1.48;;;;;;;;;;5094229;28;20081;-73
2022/06/29 11:37:53;;;;;;;2.63;1.40;;;;;;;;;;5094300;28;20023;-72
2022/06/29 11:40:34;;;;;;;1.70;1.20;;;;;;;;;;5094002;28;20032;-73
2022/06/29 11:43:10;;;;;;;4.47;1.35;;;;;;;;;;5094050;28;20071;-73
2022/06/29 11:45:46;;;;;;;3.60;1.50;;;;;;;;;;5094235;28;20020;-73
2022/06/29 11:48:16;;;;;;;3.92;2.10;;;;;;;;;;5093738;28;20103;-73
2022/06/29 11:50:43;;;;;;;2.53;1.40;;;;;;;;;;5092742;28;20387;-73
2022/06/29 11:53:09;;;;;;;3.03;1.60;;;;;;;;;;5093652;28;20024;-73
2022/06/29 11:55:42;;;;;;;2.70;1.42;;;;;;;;;;5094235;28;20056;-74
2022/06/29 11:58:15;;;;;;;1.73;1.20;;;;;;;;;;5093998;28;20449;-73
2022/06/29 12:00:43;;;;;;;3.67;1.80;;;;;;;;;;5093574;28;20476;-73
2022/06/29 12:03:09;;;;;;;4.65;1.60;;;;;;;;;;5093828;28;20032;-73
2022/06/29 12:05:36;;;;;;;2.72;1.40;;;;;;;;;;5093817;28;20084;-74
2022/06/29 12:08:02;;;;;;;5.05;1.35;;;;;;;;;;5093444;28;20020;-74
2022/06/29 12:10:28;;;;;;;3.25;1.25;;;;;;;;;;5093765;28;20020;-74
2022/06/29 12:12:55;;;;;;;1.90;1.30;;;;;;;;;;5093895;28;20055;-73
2022/06/29 12:15:21;;;;;;;2.17;1.25;;;;;;;;;;5093266;28;20563;-74
2022/06/29 12:17:47;;;;;;;1.40;1.00;;;;;;;;;;5093440;28;20030;-74
2022/06/29 12:20:13;;;;;;;2.42;1.10;;;;;;;;;;5093689;28;20149;-74
2022/06/29 12:22:39;;;;;;;7.68;1.30;;;;;;;;;;5093354;28;20028;-74
2022/06/29 12:25:05;;;;;;;3.47;1.20;;;;;;;;;;5093618;28;20032;-74
2022/06/29 12:27:32;;;;;;;2.58;1.73;;;;;;;;;;5093484;28;20151;-74
2022/06/29 12:29:58;;;;;;;1.48;1.20;;;;;;;;;;5093151;28;20054;-74
2022/06/29 12:32:24;;;;;;;2.47;1.42;;;;;;;;;;5093635;28;20024;-74
2022/06/29 12:34:50;;;;;;;3.67;1.77;;;;;;;;;;5093313;28;20465;-74
2022/06/29 12:37:18;;;;;;;2.50;1.42;;;;;;;;;;5092854;28;20028;-73
2022/06/29 12:39:44;;;;;;;3.45;1.48;;;;;;;;;;5093378;28;20140;-73
2022/06/29 12:42:10;;;;;;;2.20;1.50;;;;;;;;;;5092642;28;20182;-73
2022/06/29 12:44:37;;;;;;;8.73;1.98;;;;;;;;;;5093190;28;20448;-74
2022/06/29 12:47:03;;;;;;;1.90;1.20;;;;;;;;;;5093342;28;20030;-73
2022/06/29 12:49:29;;;;;;;2.10;1.40;;;;;;;;;;5092969;28;20035;-74
2022/06/29 12:51:55;;;;;;;2.00;1.25;;;;;;;;;;5093311;28;20032;-74
2022/06/29 12:54:21;;;;;;;3.60;1.25;;;;;;;;;;5093673;28;20029;-74
2022/06/29 12:56:48;;;;;;;2.05;1.15;;;;;;;;;;5093068;28;20024;-74
2022/06/29 12:59:14;;;;;;;2.25;1.10;;;;;;;;;;5093295;28;20412;-73
2022/06/29 13:01:40;;;;;;;4.03;1.27;;;;;;;;;;5091976;28;20430;-73
2022/06/29 13:04:07;;;;;;;4.28;1.25;;;;;;;;;;5092874;28;20030;-73
2022/06/29 13:06:33;;;;;;;3.67;1.30;;;;;;;;;;5093571;28;20024;-74
2022/06/29 13:08:59;;;;;;;1.83;1.15;;;;;;;;;;5093192;28;20016;-73
2022/06/29 13:11:25;;;;;;;2.70;1.27;;;;;;;;;;5092988;28;20056;-74
2022/06/29 13:13:51;;;;;;;2.03;1.17;;;;;;;;;;5093157;28;20043;-74
2022/06/29 13:16:18;;;;;;;1.73;1.13;;;;;;;;;;5093131;28;20044;-74
2022/06/29 13:18:44;;;;;;;2.65;1.00;;;;;;;;;;5092972;28;20016;-74
2022/06/29 13:21:10;;;;;;;1.55;1.05;;;;;;;;;;5093117;28;20066;-75
2022/06/29 13:23:37;;;;;;;1.85;1.13;;;;;;;;;;5093159;28;20028;-74
2022/06/29 13:26:03;;;;;;;1.58;1.00;;;;;;;;;;5092704;28;20020;-74
2022/06/29 13:28:29;;;;;;;1.48;0.82;;;;;;;;;;5094687;28;20046;-74
2022/06/29 13:30:55;;;;;;;1.60;1.13;;;;;;;;;;5096856;28;20388;-73
2022/06/29 13:33:21;;;;;;;4.00;1.70;;;;;;;;;;5096524;28;20024;-73
2022/06/29 13:35:48;;;;;;;1.65;0.82;;;;;;;;;;5096713;28;20537;-73
2022/06/29 13:38:14;;;;;;;1.85;0.93;;;;;;;;;;5096866;28;20028;-72
2022/06/29 13:40:41;;;;;;;1.75;0.98;;;;;;;;;;5096453;28;20021;-72
2022/06/29 13:43:07;;;;;;;2.28;1.20;;;;;;;;;;5096372;28;20044;-72
2022/06/29 13:45:33;;;;;;;1.77;1.00;;;;;;;;;;5095879;28;20100;-72
2022/06/29 13:47:59;;;;;;;3.30;1.30;;;;;;;;;;5096480;28;20039;-73
2022/06/29 13:50:26;;;;;;;2.60;1.55;;;;;;;;;;5096536;28;20035;-71
2022/06/29 13:52:52;;;;;;;3.50;0.88;;;;;;;;;;5096089;28;20020;-72
2022/06/29 13:55:18;;;;;;;4.18;1.00;;;;;;;;;;5096495;28;20028;-73
2022/06/29 13:57:45;;;;;;;3.78;0.90;;;;;;;;;;5096346;28;20556;-72
2022/06/29 14:00:11;;;;;;;1.08;0.90;;;;;;;;;;5095986;28;20103;-72
2022/06/29 14:02:39;;;;;;;2.15;0.95;;;;;;;;;;5096113;28;20040;-72
2022/06/29 14:05:06;;;;;;;1.02;0.90;;;;;;;;;;5096137;28;20103;-72
2022/06/29 14:07:32;;;;;;;0.70;0.70;;;;;;;;;;5095694;28;20028;-73
2022/06/29 14:09:58;;;;;;;3.97;1.02;;;;;;;;;;5096064;28;20024;-72
2022/06/29 14:12:24;;;;;;;2.85;0.90;;;;;;;;;;5096075;28;20480;-73
2022/06/29 14:14:51;;;;;;;2.45;0.80;;;;;;;;;;5095676;28;20429;-73
2022/06/29 14:17:17;;;;;;;4.03;1.20;;;;;;;;;;5095988;28;20031;-73
2022/06/29 14:19:43;;;;;;;3.20;0.98;;;;;;;;;;5095935;28;20016;-73
2022/06/29 14:22:09;;;;;;;3.30;0.90;;;;;;;;;;5095426;28;20093;-73
2022/06/29 14:24:36;;;;;;;1.85;0.90;;;;;;;;;;5095937;28;20020;-72
2022/06/29 14:27:02;;;;;;;1.27;0.90;;;;;;;;;;5095830;28;20032;-72
2022/06/29 14:29:28;;;;;;;2.95;0.90;;;;;;;;;;5095326;28;20028;-73
2022/06/29 14:31:54;;;;;;;2.65;1.00;;;;;;;;;;5095720;28;20047;-73
2022/06/29 14:34:20;;;;;;;2.03;1.00;;;;;;;;;;5094391;28;20028;-73
2022/06/29 14:36:46;;;;;;;1.70;0.73;;;;;;;;;;5095426;28;20024;-73
2022/06/29 14:39:12;;;;;;;1.20;0.93;;;;;;;;;;5095293;28;20047;-73
2022/06/29 14:41:39;;;;;;;2.17;1.00;;;;;;;;;;5095281;28;20044;-72
2022/06/29 14:44:05;;;;;;;2.85;1.20;;;;;;;;;;5095097;28;20020;-72
2022/06/29 14:46:32;;;;;;;1.52;0.93;;;;;;;;;;5095499;28;20020;-73
2022/06/29 14:48:58;;;;;;;1.75;0.80;;;;;;;;;;5094984;28;20023;-72
2022/06/29 14:51:24;;;;;;;2.83;0.93;;;;;;;;;;5094060;28;20024;-72
2022/06/29 14:53:50;;;;;;;2.42;1.05;;;;;;;;;;5095329;28;20024;-72
2022/06/29 14:56:16;;;;;;;3.65;1.50;;;;;;;;;;5094827;28;20016;-72
2022/06/29 14:58:43;;;;;;;4.10;1.23;;;;;;;;;;5095176;28;20024;-73
2022/06/29 15:01:09;;;;;;;5.47;0.95;;;;;;;;;;5095042;28;20024;-72
2022/06/29 15:03:36;;;;;;;1.58;1.00;;;;;;;;;;5093531;28;20032;-72
2022/06/29 15:06:02;;;;;;;2.80;1.20;;;;;;;;;;5095074;28;20020;-75
2022/06/29 15:08:28;;;;;;;2.80;1.45;;;;;;;;;;5095190;28;20052;-74
2022/06/29 15:10:54;;;;;;;1.63;0.98;;;;;;;;;;5094469;28;20457;-73
2022/06/29 15:13:20;;;;;;;1.40;1.10;;;;;;;;;;5094944;28;20108;-74
2022/06/29 15:15:47;;;;;;;2.65;1.50;;;;;;;;;;5095115;28;20027;-74
2022/06/29 15:18:13;;;;;;;2.08;1.00;;;;;;;;;;5094504;28;20039;-75
2022/06/29 15:20:40;;;;;;;2.60;1.40;;;;;;;;;;5094803;28;20021;-75
2022/06/29 15:23:06;;;;;;;2.85;1.50;;;;;;;;;;5094816;28;20046;-75
2022/06/29 15:25:32;;;;;;;3.95;1.50;;;;;;;;;;5093113;28;20097;-75
2022/06/29 15:27:58;;;;;;;3.20;1.35;;;;;;;;;;5094682;28;20033;-75
2022/06/29 15:30:24;;;;;;;3.33;1.60;;;;;;;;;;5094689;28;20024;-75
2022/06/29 15:32:51;;;;;;;2.67;1.48;;;;;;;;;;5094248;28;20022;-75
2022/06/29 15:40:39;;;;;;;2.28;1.05;;;;;;;;;;5094379;28;20059;-75
2022/06/29 15:43:06;;;;;;;3.58;1.10;;;;;;;;;;5094230;28;20082;-75
2022/06/29 15:45:32;;;;;;;1.55;1.00;;;;;;;;;;5094405;28;20025;-75
2022/06/29 15:47:58;;;;;;;1.77;0.85;;;;;;;;;;5094373;28;20024;-75
2022/06/29 15:50:25;;;;;;;2.53;1.15;;;;;;;;;;5094017;28;20037;-74
2022/06/29 15:55:33;;;;;;;2.80;1.13;;;;;;;;;;5093517;28;20103;-75
2022/06/29 15:55:37;;;;;;;2.67;1.23;;;;;;;;;;5094101;28;20036;-75
2022/06/29 15:58:03;;;;;;;1.30;0.93;;;;;;;;;;5092866;28;20107;-74
2022/06/29 16:00:30;;;;;;;2.25;0.90;;;;;;;;;;5093673;28;20035;-75
2022/06/29 16:02:56;;;;;;;1.20;0.88;;;;;;;;;;5092710;28;20032;-76
2022/06/29 16:05:22;;;;;;;3.25;1.05;;;;;;;;;;5094378;28;20024;-75
2022/06/29 16:07:48;;;;;;;2.88;1.15;;;;;;;;;;5093659;28;20028;-74
2022/06/29 16:10:14;;;;;;;1.88;0.93;;;;;;;;;;5093894;28;20028;-75
2022/06/29 16:12:41;;;;;;;1.42;0.82;;;;;;;;;;5093938;28;20119;-74
2022/06/29 16:15:07;;;;;;;2.90;1.00;;;;;;;;;;5093507;28;20055;-74
2022/06/29 16:17:33;;;;;;;2.33;1.15;;;;;;;;;;5093834;28;20035;-74
2022/06/29 16:20:00;;;;;;;1.80;1.10;;;;;;;;;;5093755;28;20118;-74
2022/06/29 16:22:26;;;;;;;1.55;1.08;;;;;;;;;;5093373;28;20468;-75
2022/06/29 16:24:52;;;;;;;3.78;1.65;;;;;;;;;;5093798;28;20071;-74
2022/06/29 16:27:18;;;;;;;1.70;1.08;;;;;;;;;;5093339;28;20051;-76
2022/06/29 16:29:44;;;;;;;2.42;1.23;;;;;;;;;;5093657;28;20487;-74
2022/06/29 16:32:11;;;;;;;2.92;0.95;;;;;;;;;;5093682;28;20503;-74
2022/06/29 16:34:37;;;;;;;1.20;1.00;;;;;;;;;;5093117;28;20169;-74
2022/06/29 16:37:03;;;;;;;3.00;1.00;;;;;;;;;;5093623;28;20024;-74
2022/06/29 16:39:30;;;;;;;1.67;1.13;;;;;;;;;;5093559;28;20494;-75